Thunder radar more information blitzortung!


Radar de pluja more information rain snow radar


Visita la nostra xarxa de llocs de meteo:

Template documentation
and downloads

And another site



No particular awareness of the weather is required.    There are no Weather-warnings

Pagina Historial Weather Underground text

Diari Resum Setembre 10, 2017 Unitats:  Imperial    Mètric   Tant
« Previous Dia
SegĂźent Dia »
Diari Setmana Mensual Anual Personalitzada
  Maxima: Minima: Media:
Temperatura: TemperatureC °F 11.6 °F 20.5 °F
Punt de rosada: DewpointC °F 4.5 °F 7.7 °F
Humitat: Humidity % 27 % 46 %
Wind Speed: WindSpeedKMH mph 0.0 mph 7.4 mph
RĂ fegues de vent: WindSpeedGustKMH mph - -
Vent:- - South
Pression baro: PressurehPa in 1003.9 in -
Precipitacions: 0.0 in    
Historical Graphs
 
 
Dades de taula per Setembre 10, 2017
Temps Temperatura Punt de rosada Pression baro Vent Wind Speed RĂ fegues de vent Humitat Rainfall Rate (Hourly)
TemperatureC °F DewpointC °F PressurehPa in Calm     Humidity % HourlyPrecipMM in
00:04 14.7 °F 11.8 °F 1005.0 in East 3.7 mph 3.7 mph 83 % 0.0 in
00:05 12.4 °F 7.9 °F 1005.0 in Calm   1.6 mph 74 % 0.0 in
00:09 14.7 °F 11.7 °F 1003.9 in East 2.6 mph 2.6 mph 82 % 0.0 in
00:14 14.6 °F 11.6 °F 1003.9 in Calm     82 % 0.0 in
00:15 12.1 °F 7.8 °F 1003.9 in SW 3.2 mph 3.2 mph 75 % 0.0 in
00:19 14.6 °F 11.6 °F 1003.9 in Calm     82 % 0.0 in
00:25 11.8 °F 7.5 °F 1005.0 in WSW 3.2 mph 3.2 mph 75 % 0.0 in
00:35 12.0 °F 7.7 °F 1005.0 in West 1.6 mph 4.8 mph 75 % 0.0 in
00:45 12.3 °F 7.8 °F 1005.0 in NW 1.6 mph 3.2 mph 74 % 0.0 in
00:55 12.4 °F 7.7 °F 1005.0 in North 3.2 mph 4.8 mph 73 % 0.0 in
01:05 12.4 °F 7.7 °F 1005.0 in NW 1.6 mph 4.8 mph 73 % 0.0 in
01:15 12.3 °F 7.4 °F 1005.0 in Calm   3.2 mph 72 % 0.0 in
01:25 12.1 °F 7.4 °F 1005.0 in Calm   1.6 mph 73 % 0.0 in
01:35 11.9 °F 7.2 °F 1005.0 in Calm   3.2 mph 73 % 0.0 in
01:45 11.8 °F 7.1 °F 1005.0 in Calm     73 % 0.0 in
01:55 11.8 °F 7.3 °F 1006.0 in NNW 1.6 mph 4.8 mph 74 % 0.0 in
02:05 11.7 °F 7.2 °F 1006.0 in NNW 1.6 mph 4.8 mph 74 % 0.0 in
02:15 11.6 °F 7.1 °F 1006.0 in NW 1.6 mph 3.2 mph 74 % 0.0 in
02:25 11.7 °F 7.2 °F 1006.0 in NE 1.6 mph 4.8 mph 74 % 0.0 in
02:35 11.6 °F 7.1 °F 1006.0 in NE 1.6 mph 3.2 mph 74 % 0.0 in
02:45 11.6 °F 6.9 °F 1006.0 in NW 1.6 mph 3.2 mph 73 % 0.0 in
02:55 11.8 °F 7.1 °F 1006.0 in WSW 4.8 mph 6.4 mph 73 % 0.0 in
03:05 11.9 °F 7.2 °F 1006.0 in WSW 1.6 mph 3.2 mph 73 % 0.0 in
03:15 12.3 °F 7.6 °F 1006.0 in WSW 1.6 mph 3.2 mph 73 % 0.0 in
03:25 12.8 °F 7.9 °F 1006.0 in WSW 3.2 mph 6.4 mph 72 % 0.0 in
03:35 12.9 °F 7.8 °F 1006.0 in WSW 1.6 mph 3.2 mph 71 % 0.0 in
03:45 14.0 °F 8.6 °F 1006.0 in SSW 1.6 mph 3.2 mph 70 % 0.0 in
03:55 14.5 °F 8.7 °F 1006.0 in ENE 3.2 mph 3.2 mph 68 % 0.0 in
04:05 14.9 °F 9.1 °F 1006.0 in Calm   4.8 mph 68 % 0.0 in
04:15 15.0 °F 8.7 °F 1006.0 in NNE 1.6 mph 4.8 mph 66 % 0.0 in
04:25 16.0 °F 9.7 °F 1006.0 in NE 1.6 mph 3.2 mph 66 % 0.0 in
04:35 15.4 °F 8.8 °F 1006.0 in NE 4.8 mph 4.8 mph 65 % 0.0 in
04:45 15.9 °F 9.3 °F 1006.0 in NE 1.6 mph 4.8 mph 65 % 0.0 in
04:55 16.2 °F 9.6 °F 1006.0 in NE 4.8 mph 6.4 mph 65 % 0.0 in
09:54 16.2 °F 9.6 °F 1006.0 in ENE 3.7 mph 4.2 mph 65 % 0.0 in
09:59 15.7 °F 8.9 °F 1006.0 in NNE 7.4 mph 7.4 mph 64 % 0.0 in
10:04 16.1 °F 9.1 °F 1006.0 in NNE 7.4 mph 7.4 mph 63 % 0.0 in
10:09 16.2 °F 9.2 °F 1007.0 in NNW 7.4 mph 7.4 mph 63 % 0.0 in
10:14 16.7 °F 9.8 °F 1007.0 in NE 5.0 mph 5.0 mph 64 % 0.0 in
10:19 17.1 °F 10.0 °F 1007.0 in NE 5.6 mph 5.6 mph 63 % 0.0 in
10:24 17.1 °F 9.8 °F 1007.0 in North 3.7 mph 3.7 mph 62 % 0.0 in
10:29 17.0 °F 9.4 °F 1007.0 in ENE 7.4 mph 7.4 mph 61 % 0.0 in
10:34 17.7 °F 10.3 °F 1007.0 in SW 3.9 mph 3.9 mph 62 % 0.0 in
10:39 18.1 °F 10.4 °F 1007.0 in NE 4.2 mph 4.2 mph 61 % 0.0 in
10:44 18.2 °F 10.3 °F 1007.0 in ENE 5.6 mph 5.6 mph 60 % 0.0 in
10:49 18.0 °F 10.1 °F 1007.0 in East 7.4 mph 7.4 mph 60 % 0.0 in
10:54 17.8 °F 9.7 °F 1007.0 in East 9.3 mph 9.3 mph 59 % 0.0 in
10:59 18.2 °F 9.8 °F 1007.0 in ESE 7.4 mph 7.4 mph 58 % 0.0 in
11:04 18.3 °F 10.4 °F 1007.0 in NNE 5.6 mph 5.6 mph 60 % 0.0 in
11:09 18.7 °F 10.5 °F 1007.0 in ENE 5.6 mph 5.6 mph 59 % 0.0 in
11:14 19.2 °F 10.4 °F 1007.0 in East 5.6 mph 5.6 mph 57 % 0.0 in
11:19 19.4 °F 10.7 °F 1007.0 in NE 5.6 mph 5.6 mph 57 % 0.0 in
11:24 19.4 °F 10.7 °F 1007.0 in East 7.4 mph 7.4 mph 57 % 0.0 in
11:29 19.7 °F 10.7 °F 1007.0 in North 5.6 mph 5.6 mph 56 % 0.0 in
11:34 20.1 °F 10.2 °F 1007.0 in ESE 5.6 mph 5.6 mph 53 % 0.0 in
11:39 20.1 °F 10.2 °F 1007.0 in East 9.0 mph 9.0 mph 53 % 0.0 in
11:44 20.1 °F 10.2 °F 1007.0 in ESE 9.3 mph 9.3 mph 53 % 0.0 in
11:49 20.2 °F 10.0 °F 1007.0 in ESE 7.4 mph 7.6 mph 52 % 0.0 in
11:54 20.5 °F 10.9 °F 1007.0 in NNE 5.6 mph 5.6 mph 54 % 0.0 in
11:59 20.9 °F 10.9 °F 1007.0 in ESE 5.6 mph 5.6 mph 53 % 0.0 in
12:04 21.3 °F 11.1 °F 1007.0 in ESE 7.4 mph 7.4 mph 52 % 0.0 in
12:09 21.4 °F 10.8 °F 1007.0 in ESE 6.4 mph 6.4 mph 51 % 0.0 in
12:14 21.1 °F 10.8 °F 1007.0 in ENE 6.4 mph 6.4 mph 52 % 0.0 in
12:19 21.9 °F 11.3 °F 1007.0 in WSW 5.6 mph 5.6 mph 51 % 0.0 in
12:24 22.3 °F 11.4 °F 1007.0 in NW 9.3 mph 9.3 mph 50 % 0.0 in
12:29 22.5 °F 10.9 °F 1007.0 in SW 18.5 mph 18.5 mph 48 % 0.0 in
12:34 22.8 °F 10.9 °F 1007.0 in WSW 10.8 mph 10.8 mph 47 % 0.0 in
12:39 22.5 °F 9.9 °F 1007.0 in WNW 13.0 mph 13.0 mph 45 % 0.0 in
12:44 22.9 °F 10.3 °F 1007.0 in WSW 13.0 mph 13.0 mph 45 % 0.0 in
12:49 23.0 °F 10.1 °F 1007.0 in SSW 9.3 mph 9.3 mph 44 % 0.0 in
12:54 23.2 °F 9.9 °F 1007.0 in WNW 10.3 mph 10.3 mph 43 % 0.0 in
12:59 23.3 °F 10.0 °F 1007.0 in WSW 10.3 mph 10.3 mph 43 % 0.0 in
13:04 23.3 °F 8.9 °F 1007.0 in West 13.0 mph 13.0 mph 40 % 0.0 in
13:09 23.5 °F 9.1 °F 1006.0 in West 13.0 mph 13.0 mph 40 % 0.0 in
13:14 23.9 °F 9.8 °F 1006.0 in WSW 6.9 mph 6.9 mph 41 % 0.0 in
13:19 24.1 °F 10.0 °F 1006.0 in West 9.3 mph 11.1 mph 41 % 0.0 in
13:24 23.9 °F 9.5 °F 1006.0 in West 9.5 mph 9.5 mph 40 % 0.0 in
13:29 24.2 °F 9.4 °F 1006.0 in SSW 16.7 mph 16.7 mph 39 % 0.0 in
13:34 24.1 °F 8.9 °F 1006.0 in WNW 9.3 mph 9.3 mph 38 % 0.0 in
13:39 24.2 °F 8.6 °F 1005.0 in SSW 16.7 mph 16.7 mph 37 % 0.0 in
13:44 24.4 °F 9.2 °F 1005.0 in North 6.4 mph 6.4 mph 38 % 0.0 in
13:49 24.6 °F 8.9 °F 1005.0 in WNW 11.1 mph 11.1 mph 37 % 0.0 in
13:54 24.6 °F 8.9 °F 1006.0 in WNW 7.9 mph 8.7 mph 37 % 0.0 in
13:59 24.8 °F 9.1 °F 1006.0 in NNE 9.3 mph 9.3 mph 37 % 0.0 in
14:04 25.0 °F 8.1 °F 1006.0 in WSW 11.1 mph 11.1 mph 34 % 0.0 in
14:09 24.7 °F 7.3 °F 1006.0 in SSW 13.0 mph 13.0 mph 33 % 0.0 in
14:14 25.0 °F 7.6 °F 1006.0 in WNW 7.4 mph 7.4 mph 33 % 0.0 in
14:19 24.8 °F 7.0 °F 1006.0 in SSW 14.8 mph 14.8 mph 32 % 0.0 in
14:24 25.1 °F 7.2 °F 1006.0 in West 14.8 mph 14.8 mph 32 % 0.0 in
14:25 25.1 °F 7.2 °F 1006.0 in West 14.8 mph 14.8 mph 32 % 0.0 in
14:30 24.9 °F 7.1 °F 1006.0 in NW 13.0 mph 13.0 mph 32 % 0.0 in
14:35 25.2 °F 6.9 °F 1006.0 in SSW 9.5 mph 9.5 mph 31 % 0.0 in
14:40 25.4 °F 6.6 °F 1006.0 in West 9.3 mph 9.3 mph 30 % 0.0 in
14:45 25.5 °F 6.7 °F 1006.0 in WNW 13.7 mph 13.7 mph 30 % 0.0 in
14:50 25.4 °F 6.6 °F 1006.0 in WSW 12.2 mph 12.2 mph 30 % 0.0 in
14:55 25.7 °F 6.8 °F 1006.0 in NW 9.3 mph 9.3 mph 30 % 0.0 in
15:00 25.6 °F 6.2 °F 1006.0 in South 3.7 mph 4.2 mph 29 % 0.0 in
15:05 25.8 °F 6.9 °F 1006.0 in West 5.6 mph 5.6 mph 30 % 0.0 in
15:10 26.2 °F 7.2 °F 1006.0 in WNW 11.4 mph 11.4 mph 30 % 0.0 in
15:15 25.9 °F 7.0 °F 1006.0 in WSW 14.8 mph 14.8 mph 30 % 0.0 in
15:20 25.5 °F 6.2 °F 1006.0 in WSW 16.7 mph 16.7 mph 29 % 0.0 in
15:22 25.4 °F 6.1 °F 1005.0 in WSW 9.3 mph 9.5 mph 29 % 0.0 in
15:27 25.8 °F 6.4 °F 1005.0 in WSW 13.0 mph 13.0 mph 29 % 0.0 in
15:32 26.1 °F 6.7 °F 1005.0 in WSW 11.1 mph 11.1 mph 29 % 0.0 in
15:37 26.3 °F 6.8 °F 1006.0 in WNW 16.7 mph 16.7 mph 29 % 0.0 in
15:42 26.3 °F 6.8 °F 1006.0 in WNW 13.0 mph 13.0 mph 29 % 0.0 in
15:47 26.5 °F 7.0 °F 1006.0 in WSW 16.7 mph 16.7 mph 29 % 0.0 in
15:52 26.6 °F 7.1 °F 1006.0 in West 13.0 mph 13.0 mph 29 % 0.0 in
15:57 26.9 °F 7.3 °F 1006.0 in WNW 7.4 mph 7.4 mph 29 % 0.0 in
16:02 26.7 °F 6.7 °F 1006.0 in SW 14.8 mph 14.8 mph 28 % 0.0 in
16:07 26.5 °F 6.5 °F 1006.0 in NNW 16.7 mph 16.7 mph 28 % 0.0 in
16:12 26.4 °F 6.4 °F 1006.0 in NNW 7.4 mph 7.4 mph 28 % 0.0 in
16:17 26.9 °F 6.8 °F 1006.0 in West 7.4 mph 7.4 mph 28 % 0.0 in
16:22 27.1 °F 7.0 °F 1006.0 in SW 11.1 mph 11.1 mph 28 % 0.0 in
16:27 27.2 °F 7.1 °F 1006.0 in WSW 14.8 mph 14.8 mph 28 % 0.0 in
16:32 27.1 °F 7.0 °F 1006.0 in WNW 12.6 mph 12.6 mph 28 % 0.0 in
16:37 27.1 °F 7.0 °F 1007.0 in WSW 14.8 mph 14.8 mph 28 % 0.0 in
16:42 27.0 °F 6.9 °F 1007.0 in SW 13.0 mph 13.0 mph 28 % 0.0 in
16:47 27.0 °F 6.9 °F 1007.0 in West 9.3 mph 10.8 mph 28 % 0.0 in
16:52 26.9 °F 6.8 °F 1005.0 in NW 16.7 mph 16.7 mph 28 % 0.0 in
16:57 26.9 °F 6.8 °F 1005.0 in WSW 13.0 mph 13.0 mph 28 % 0.0 in
17:02 27.1 °F 7.0 °F 1005.0 in WSW 9.3 mph 9.3 mph 28 % 0.0 in
17:07 27.0 °F 6.9 °F 1006.0 in SSW 14.8 mph 14.8 mph 28 % 0.0 in
17:12 27.2 °F 7.1 °F 1006.0 in West 9.3 mph 9.3 mph 28 % 0.0 in
17:17 26.6 °F 6.6 °F 1006.0 in West 6.9 mph 6.9 mph 28 % 0.0 in
17:22 27.0 °F 6.9 °F 1006.0 in NNW 11.9 mph 11.9 mph 28 % 0.0 in
17:27 26.9 °F 6.8 °F 1006.0 in SSW 13.0 mph 13.0 mph 28 % 0.0 in
17:32 26.8 °F 6.8 °F 1006.0 in WSW 11.1 mph 11.1 mph 28 % 0.0 in
17:37 26.6 °F 6.6 °F 1006.0 in SW 13.0 mph 13.0 mph 28 % 0.0 in
17:42 26.6 °F 6.6 °F 1006.0 in SW 15.6 mph 15.6 mph 28 % 0.0 in
17:47 26.6 °F 6.6 °F 1006.0 in SW 14.8 mph 14.8 mph 28 % 0.0 in
17:52 26.5 °F 6.5 °F 1006.0 in SW 13.0 mph 13.0 mph 28 % 0.0 in
17:57 26.3 °F 6.3 °F 1006.0 in West 9.3 mph 9.3 mph 28 % 0.0 in
18:02 26.5 °F 6.5 °F 1006.0 in SW 14.8 mph 14.8 mph 28 % 0.0 in
18:07 26.3 °F 6.3 °F 1005.0 in West 14.8 mph 14.8 mph 28 % 0.0 in
18:12 26.2 °F 6.2 °F 1005.0 in WSW 13.0 mph 13.0 mph 28 % 0.0 in
18:17 26.1 °F 5.6 °F 1005.0 in SSW 20.4 mph 20.4 mph 27 % 0.0 in
18:22 26.0 °F 5.6 °F 1006.0 in WSW 14.8 mph 14.8 mph 27 % 0.0 in
18:27 26.0 °F 5.6 °F 1006.0 in West 9.3 mph 9.3 mph 27 % 0.0 in
18:32 26.1 °F 5.6 °F 1006.0 in WSW 16.7 mph 16.7 mph 27 % 0.0 in
18:37 25.8 °F 5.4 °F 1006.0 in South 17.2 mph 17.2 mph 27 % 0.0 in
18:42 25.7 °F 5.8 °F 1006.0 in West 13.0 mph 13.0 mph 28 % 0.0 in
18:47 25.9 °F 6.0 °F 1006.0 in WSW 13.0 mph 13.0 mph 28 % 0.0 in
18:52 25.8 °F 5.9 °F 1006.0 in WSW 16.7 mph 16.7 mph 28 % 0.0 in
18:57 25.5 °F 5.7 °F 1006.0 in SW 13.0 mph 13.0 mph 28 % 0.0 in
19:02 25.3 °F 5.4 °F 1006.0 in WSW 18.5 mph 18.5 mph 28 % 0.0 in
19:07 24.9 °F 5.6 °F 1006.0 in WNW 9.3 mph 9.3 mph 29 % 0.0 in
19:10 18.4 °F 8.1 °F 1010.0 in Calm     51 % 0.0 in
19:12 24.8 °F 5.6 °F 1006.0 in West 11.1 mph 11.1 mph 29 % 0.0 in
19:17 24.6 °F 5.4 °F 1006.0 in West 9.3 mph 9.3 mph 29 % 0.0 in
19:20 18.3 °F 8.0 °F 1010.0 in NNE 1.6 mph 1.6 mph 51 % 0.0 in
19:22 24.5 °F 5.3 °F 1006.0 in WSW 12.2 mph 12.2 mph 29 % 0.0 in
19:27 24.2 °F 5.1 °F 1006.0 in West 13.0 mph 13.0 mph 29 % 0.0 in
19:30 18.2 °F 7.9 °F 1009.0 in West 1.6 mph 3.2 mph 51 % 0.0 in
19:32 24.0 °F 4.8 °F 1006.0 in West 9.3 mph 9.3 mph 29 % 0.0 in
19:37 23.8 °F 4.7 °F 1007.0 in WSW 7.4 mph 7.4 mph 29 % 0.0 in
19:40 18.1 °F 7.8 °F 1010.0 in West 3.2 mph 3.2 mph 51 % 0.0 in
19:42 23.6 °F 5.0 °F 1007.0 in SW 9.3 mph 9.3 mph 30 % 0.0 in
19:47 23.5 °F 4.9 °F 1007.0 in WSW 9.0 mph 9.0 mph 30 % 0.0 in
19:49 23.4 °F 4.8 °F 1007.0 in WSW 7.4 mph 7.4 mph 30 % 0.0 in
19:50 17.8 °F 7.2 °F 1010.0 in WSW 1.6 mph 3.2 mph 50 % 0.0 in
19:54 23.2 °F 4.7 °F 1007.0 in WSW 7.4 mph 7.4 mph 30 % 0.0 in
19:59 23.0 °F 4.5 °F 1007.0 in WNW 16.7 mph 16.7 mph 30 % 0.0 in
20:00 17.8 °F 7.2 °F 1010.0 in WSW 1.6 mph 3.2 mph 50 % 0.0 in
20:04 22.9 °F 4.9 °F 1007.0 in WSW 5.6 mph 5.6 mph 31 % 0.0 in
20:09 22.7 °F 4.7 °F 1008.0 in West 9.3 mph 9.3 mph 31 % 0.0 in
20:10 17.6 °F 7.1 °F 1009.0 in WSW 1.6 mph 3.2 mph 50 % 0.0 in
20:14 22.6 °F 4.6 °F 1008.0 in WSW 5.6 mph 5.6 mph 31 % 0.0 in
20:19 22.5 °F 5.0 °F 1008.0 in WSW 5.8 mph 5.8 mph 32 % 0.0 in
20:20 17.3 °F 7.1 °F 1009.0 in Calm   3.2 mph 51 % 0.0 in
20:24 22.4 °F 4.9 °F 1008.0 in SW 2.6 mph   32 % 0.0 in
20:29 22.2 °F 4.7 °F 1008.0 in WSW 1.9 mph 1.9 mph 32 % 0.0 in
20:30 17.2 °F 6.9 °F 1010.0 in SW 1.6 mph 3.2 mph 51 % 0.0 in
20:34 22.1 °F 4.6 °F 1008.0 in NE 5.6 mph 5.6 mph 32 % 0.0 in
20:39 21.6 °F 5.5 °F 1007.0 in ESE 5.6 mph 5.6 mph 35 % 0.0 in
20:40 17.0 °F 6.8 °F 1010.0 in WSW 1.6 mph 3.2 mph 51 % 0.0 in
20:44 21.2 °F 5.9 °F 1007.0 in NE 5.6 mph 5.6 mph 37 % 0.0 in
20:49 20.9 °F 6.4 °F 1007.0 in East 3.9 mph 3.9 mph 39 % 0.0 in
20:50 16.8 °F 6.9 °F 1010.0 in Calm   3.2 mph 52 % 0.0 in
20:54 20.8 °F 6.7 °F 1008.0 in ESE 5.0 mph 5.0 mph 40 % 0.0 in
20:59 20.5 °F 7.2 °F 1008.0 in ESE 5.6 mph 5.6 mph 42 % 0.0 in
21:00 16.9 °F 7.0 °F 1010.0 in WSW 1.6 mph 3.2 mph 52 % 0.0 in
21:04 20.4 °F 7.4 °F 1008.0 in NE 3.5 mph   43 % 0.0 in
21:09 20.1 °F 7.4 °F 1009.0 in NNE 6.9 mph 6.9 mph 44 % 0.0 in
21:10 17.1 °F 6.9 °F 1010.0 in West 3.2 mph 6.4 mph 51 % 0.0 in
21:14 19.9 °F 7.6 °F 1009.0 in ENE 9.3 mph 9.3 mph 45 % 0.0 in
21:19 19.8 °F 7.8 °F 1009.0 in NNE 5.6 mph 5.6 mph 46 % 0.0 in
21:20 17.4 °F 7.2 °F 1010.0 in West 4.8 mph 8.0 mph 51 % 0.0 in
21:24 19.6 °F 8.0 °F 1009.0 in ENE 3.5 mph 3.5 mph 47 % 0.0 in
21:29 19.5 °F 8.2 °F 1009.0 in NE 5.6 mph 5.6 mph 48 % 0.0 in
21:30 17.6 °F 7.1 °F 1009.0 in West 4.8 mph 8.0 mph 50 % 0.0 in
21:34 19.4 °F 8.1 °F 1009.0 in ENE 7.4 mph 7.4 mph 48 % 0.0 in
21:36 19.4 °F 8.4 °F 1010.0 in NE 9.5 mph 9.5 mph 49 % 0.0 in
21:40 17.6 °F 7.1 °F 1009.0 in West 8.0 mph 8.0 mph 50 % 0.0 in
21:41 19.3 °F 8.3 °F 1010.0 in NNE 5.6 mph 5.6 mph 49 % 0.0 in
21:50 17.6 °F 7.1 °F 1009.0 in West 4.8 mph 8.0 mph 50 % 0.0 in
21:51 19.3 °F 8.6 °F 1010.0 in East 3.7 mph 3.7 mph 50 % 0.0 in
22:00 17.7 °F 7.2 °F 1009.0 in WSW 4.8 mph 6.4 mph 50 % 0.0 in
22:01 19.2 °F 8.5 °F 1010.0 in ENE 5.6 mph 5.6 mph 50 % 0.0 in
22:06 19.1 °F 8.4 °F 1010.0 in ENE 2.6 mph 2.6 mph 50 % 0.0 in
22:10 17.9 °F 7.0 °F 1009.0 in West 9.7 mph 9.7 mph 49 % 0.0 in
22:11 19.0 °F 8.6 °F 1010.0 in ESE 7.4 mph 7.4 mph 51 % 0.0 in
22:16 19.0 °F 8.6 °F 1010.0 in ESE 3.7 mph 3.7 mph 51 % 0.0 in
22:20 17.9 °F 7.0 °F 1009.0 in West 4.8 mph 4.8 mph 49 % 0.0 in
22:21 18.8 °F 8.4 °F 1010.0 in WSW 1.9 mph 1.9 mph 51 % 0.0 in
22:26 18.7 °F 8.6 °F 1010.0 in NNE 5.8 mph 5.8 mph 52 % 0.0 in
22:30 17.8 °F 6.9 °F 1009.0 in West 4.8 mph 9.7 mph 49 % 0.0 in
22:31 18.6 °F 8.6 °F 1010.0 in NNE 5.6 mph 5.6 mph 52 % 0.0 in
22:36 18.6 °F 8.6 °F 1010.0 in NNE 5.6 mph 5.6 mph 52 % 0.0 in
22:40 17.7 °F 6.8 °F 1010.0 in West 3.2 mph 6.4 mph 49 % 0.0 in
22:41 18.6 °F 8.6 °F 1010.0 in NNE 5.6 mph 5.6 mph 52 % 0.0 in
22:46 18.6 °F 8.6 °F 1010.0 in NNE 5.6 mph 5.6 mph 52 % 0.0 in
22:50 17.6 °F 6.8 °F 1010.0 in WSW 8.0 mph 8.0 mph 49 % 0.0 in
22:51 18.6 °F 8.6 °F 1010.0 in NNE 5.6 mph 5.6 mph 52 % 0.0 in
22:56 18.6 °F 8.6 °F 1010.0 in NNE 5.6 mph 5.6 mph 52 % 0.0 in
23:00 17.5 °F 6.7 °F 1009.0 in WSW 4.8 mph 8.0 mph 49 % 0.0 in
23:01 18.6 °F 8.6 °F 1010.0 in NNE 5.6 mph 5.6 mph 52 % 0.0 in
23:06 18.6 °F 8.6 °F 1010.0 in NNE 5.6 mph 5.6 mph 52 % 0.0 in
23:10 17.5 °F 6.7 °F 1009.0 in WSW 4.8 mph 4.8 mph 49 % 0.0 in
23:11 18.6 °F 8.6 °F 1010.0 in NNE 5.6 mph 5.6 mph 52 % 0.0 in
23:16 18.6 °F 8.6 °F 1010.0 in NNE 5.6 mph 5.6 mph 52 % 0.0 in
23:20 17.4 °F 6.6 °F 1009.0 in WSW 4.8 mph 6.4 mph 49 % 0.0 in
23:21 18.6 °F 8.6 °F 1010.0 in NNE 5.6 mph 5.6 mph 52 % 0.0 in
23:26 18.6 °F 8.6 °F 1010.0 in NNE 5.6 mph 5.6 mph 52 % 0.0 in
23:30 17.3 °F 6.5 °F 1009.0 in WSW 3.2 mph 6.4 mph 49 % 0.0 in
23:36 18.6 °F 8.6 °F 1010.0 in NNE 5.6 mph 5.6 mph 52 % 0.0 in
23:40 17.2 °F 6.4 °F 1009.0 in West 1.6 mph 3.2 mph 49 % 0.0 in
23:41 18.6 °F 8.6 °F 1010.0 in NNE 5.6 mph 5.6 mph 52 % 0.0 in
23:46 18.6 °F 8.6 °F 1010.0 in NNE 5.6 mph 5.6 mph 52 % 0.0 in
23:50 17.0 °F 6.5 °F 1009.0 in West 1.6 mph 3.2 mph 50 % 0.0 in
23:51 18.6 °F 8.6 °F 1010.0 in NNE 5.6 mph 5.6 mph 52 % 0.0 in
23:56 18.6 °F 8.6 °F 1010.0 in NNE 5.6 mph 5.6 mph 52 % 0.0 in
Meteo Sesrovires
Elogis d' Weather Underground - 1.5 mb

Guio original per  Jim McMurry - jmcmurry@mwt.net Adaptat per a la plantilla per  Wim van der Kuil - Leuven-Template.eu

Trobareu la nostra informacio del temps tambe a:

Weather Underground

AWEKAS